Time;durP1;ratioP1;P1;durP2;ratioP2;P2;SDS_P1;SDS_P2;PMS_P1;PMS_P2;Temp;Humidity;BMP_temperature;BMP_pressure;BME280_temperature;BME280_humidity;BME280_pressure;Samples;Min_cycle;Max_cycle;Signal;HPM_P1;HPM_P2
2023/07/17 00:00:03;;;;;;;;;;;;;;;18.33;100.00;99992.72;5015023;28;930;-70
2023/07/17 00:02:30;;;;;;;;;;;;;;;18.25;100.00;99993.41;5014739;28;866;-70
2023/07/17 00:04:57;;;;;;;;;;;;;;;18.20;100.00;99991.16;4997304;28;1918;-70
2023/07/17 00:07:24;;;;;;;;;;;;;;;18.14;100.00;99993.75;5014771;28;858;-71
2023/07/17 00:09:51;;;;;;;;;;;;;;;18.07;100.00;99986.38;4997017;28;1297;-69
2023/07/17 00:12:18;;;;;;;;;;;;;;;18.04;100.00;99992.09;5014875;28;815;-69
2023/07/17 00:14:45;;;;;;;;;;;;;;;18.04;100.00;99990.06;5014677;28;858;-69
2023/07/17 00:17:14;;;;;;;;;;;;;;;18.03;100.00;99994.09;5014654;28;870;-70
2023/07/17 00:19:51;;;;;;;;;;;;;;;18.02;100.00;99998.13;4997094;28;1472;-70
2023/07/17 00:22:18;;;;;;;;;;;;;;;18.05;100.00;99988.03;5014842;28;807;-70
2023/07/17 00:24:45;;;;;;;;;;;;;;;18.07;100.00;99982.78;5014750;28;1890;-70
2023/07/17 00:27:12;;;;;;;;;;;;;;;18.13;100.00;99986.59;5014764;28;854;-70
2023/07/17 00:29:40;;;;;;;;;;;;;;;18.16;100.00;99988.50;5014898;28;855;-70
2023/07/17 00:32:07;;;;;;;;;;;;;;;18.17;100.00;99974.03;5014741;28;850;-70
2023/07/17 00:34:33;;;;;;;;;;;;;;;18.01;100.00;99951.03;5014509;28;804;-71
2023/07/17 00:37:00;;;;;;;;;;;;;;;18.21;100.00;99973.94;5014525;28;819;-70
2023/07/17 00:39:26;;;;;;;;;;;;;;;18.29;100.00;99974.47;5015058;28;764;-71
2023/07/17 00:41:53;;;;;;;;;;;;;;;18.39;100.00;99973.31;5014377;28;898;-71
2023/07/17 00:44:20;;;;;;;;;;;;;;;18.44;100.00;99977.56;5014787;28;1953;-70
2023/07/17 00:46:49;;;;;;;;;;;;;;;18.37;100.00;99978.59;5014191;28;882;-70
2023/07/17 00:49:17;;;;;;;;;;;;;;;18.27;100.00;99982.53;5014437;28;799;-70
2023/07/17 00:51:44;;;;;;;;;;;;;;;18.31;100.00;99977.63;5014552;28;882;-70
2023/07/17 00:54:14;;;;;;;;;;;;;;;18.42;100.00;99980.03;5013967;28;1182;-70
2023/07/17 00:56:42;;;;;;;;;;;;;;;18.49;100.00;99974.97;5014149;28;999;-70
2023/07/17 00:59:09;;;;;;;;;;;;;;;18.60;100.00;99971.78;5014088;28;866;-71
2023/07/17 01:01:36;;;;;;;;;;;;;;;18.66;100.00;99972.78;5013910;28;807;-71
2023/07/17 01:04:05;;;;;;;;;;;;;;;18.70;100.00;99975.47;5013723;28;1938;-71
2023/07/17 01:06:31;;;;;;;;;;;;;;;18.75;100.00;99966.47;5013783;28;850;-71
2023/07/17 01:08:59;;;;;;;;;;;;;;;18.77;100.00;99969.59;5013496;28;827;-70
2023/07/17 01:11:26;;;;;;;;;;;;;;;18.74;100.00;99973.31;5013758;28;858;-70
2023/07/17 01:13:53;;;;;;;;;;;;;;;18.72;100.00;99973.00;5013617;28;937;-71
2023/07/17 01:16:21;;;;;;;;;;;;;;;18.71;100.00;99972.22;5013925;28;784;-71
2023/07/17 01:18:48;;;;;;;;;;;;;;;18.70;100.00;99981.06;5013520;28;838;-71
2023/07/17 01:21:17;;;;;;;;;;;;;;;18.68;100.00;99977.94;5013358;28;935;-72
2023/07/17 01:23:46;;;;;;;;;;;;;;;18.59;100.00;99975.06;5013467;28;858;-72
2023/07/17 01:26:17;;;;;;;;;;;;;;;18.43;100.00;99976.78;5013378;28;1891;-72
2023/07/17 01:28:44;;;;;;;;;;;;;;;18.33;100.00;99975.16;5013368;28;890;-71
2023/07/17 01:31:12;;;;;;;;;;;;;;;18.29;100.00;99974.47;5013287;28;811;-71
2023/07/17 01:33:39;;;;;;;;;;;;;;;18.17;100.00;99968.44;5013270;28;878;-72
2023/07/17 01:36:06;;;;;;;;;;;;;;;18.02;100.00;99972.19;5013295;28;811;-72
2023/07/17 01:38:33;;;;;;;;;;;;;;;17.86;100.00;99976.69;5013189;28;791;-71
2023/07/17 01:41:00;;;;;;;;;;;;;;;17.77;100.00;99970.94;5013418;28;870;-71
2023/07/17 01:43:27;;;;;;;;;;;;;;;17.81;100.00;99968.03;5013219;28;1045;-72
2023/07/17 01:45:54;;;;;;;;;;;;;;;17.83;100.00;99969.16;5013054;28;1930;-71
2023/07/17 01:48:21;;;;;;;;;;;;;;;17.80;100.00;99970.06;5013408;28;834;-71
2023/07/17 01:50:48;;;;;;;;;;;;;;;17.79;100.00;99978.88;5013110;28;1002;-72
2023/07/17 01:53:18;;;;;;;;;;;;;;;17.79;100.00;99976.84;5012765;28;1241;-72
2023/07/17 01:55:44;;;;;;;;;;;;;;;17.84;100.00;99986.75;5012959;28;787;-72
2023/07/17 01:58:12;;;;;;;;;;;;;;;17.83;100.00;99985.16;5012907;28;1219;-71
2023/07/17 02:00:39;;;;;;;;;;;;;;;17.84;100.00;99979.13;5013613;28;772;-71
2023/07/17 02:03:05;;;;;;;;;;;;;;;17.84;100.00;99979.13;5013080;28;846;-71
2023/07/17 02:05:31;;;;;;;;;;;;;;;17.85;100.00;99985.50;5013209;28;1910;-72
2023/07/17 02:07:58;;;;;;;;;;;;;;;17.86;100.00;99984.25;5012735;28;1281;-71
2023/07/17 02:10:24;;;;;;;;;;;;;;;17.88;100.00;99985.41;5012788;28;1044;-71
2023/07/17 02:12:51;;;;;;;;;;;;;;;17.91;100.00;99980.91;5012673;28;795;-72
2023/07/17 02:15:18;;;;;;;;;;;;;;;17.87;100.00;99975.44;5012818;28;831;-70
2023/07/17 02:17:45;;;;;;;;;;;;;;;17.89;100.00;99984.16;5012625;28;831;-72
2023/07/17 02:20:13;;;;;;;;;;;;;;;17.90;100.00;99982.13;5012010;28;843;-70
2023/07/17 02:22:40;;;;;;;;;;;;;;;17.89;100.00;99983.38;5012870;28;890;-71
2023/07/17 02:25:08;;;;;;;;;;;;;;;17.88;100.00;99979.81;5013012;28;1894;-71
2023/07/17 02:27:35;;;;;;;;;;;;;;;17.89;100.00;99978.56;5012799;28;1355;-71
2023/07/17 02:30:03;;;;;;;;;;;;;;;17.89;100.00;99977.78;5012464;28;855;-71
2023/07/17 02:32:30;;;;;;;;;;;;;;;17.84;100.00;99981.16;5012809;28;798;-72
2023/07/17 02:34:56;;;;;;;;;;;;;;;17.76;100.00;99972.16;5012661;28;881;-71
2023/07/17 02:37:23;;;;;;;;;;;;;;;17.66;100.00;99976.84;5012562;28;830;-71
2023/07/17 02:39:50;;;;;;;;;;;;;;;17.56;100.00;99975.19;5012626;28;841;-71
2023/07/17 02:42:16;;;;;;;;;;;;;;;17.50;100.00;99988.16;5012674;28;854;-71
2023/07/17 02:44:46;;;;;;;;;;;;;;;17.40;100.00;99984.44;5012310;28;1949;-70
2023/07/17 02:47:14;;;;;;;;;;;;;;;17.30;100.00;99986.34;4994937;28;909;-70
2023/07/17 02:49:41;;;;;;;;;;;;;;;17.24;100.00;99985.31;5012567;28;830;-71
2023/07/17 02:52:09;;;;;;;;;;;;;;;17.19;100.00;99988.66;5012387;28;842;-70
2023/07/17 02:54:39;;;;;;;;;;;;;;;17.14;100.00;99983.63;5012304;28;1545;-70
2023/07/17 02:57:06;;;;;;;;;;;;;;;17.11;100.00;99982.50;5012347;28;837;-71
2023/07/17 02:59:33;;;;;;;;;;;;;;;17.12;100.00;99983.28;4994575;28;1264;-70
2023/07/17 03:01:59;;;;;;;;;;;;;;;17.09;100.00;99984.97;5012400;28;866;-71
2023/07/17 03:04:26;;;;;;;;;;;;;;;17.10;100.00;99986.50;5012432;28;1914;-70
2023/07/17 03:06:53;;;;;;;;;;;;;;;17.17;100.00;99982.72;5012398;28;879;-71
2023/07/17 03:09:20;;;;;;;;;;;;;;;17.36;100.00;99992.16;5012221;28;866;-70
2023/07/17 03:11:48;;;;;;;;;;;;;;;17.52;100.00;99994.84;5012396;28;882;-70
2023/07/17 03:14:14;;;;;;;;;;;;;;;17.62;100.00;99981.78;4994498;28;1344;-70
2023/07/17 03:16:41;;;;;;;;;;;;;;;17.65;100.00;99971.72;5012111;28;829;-71
2023/07/17 03:19:08;;;;;;;;;;;;;;;17.64;100.00;99973.72;5012125;28;822;-71
2023/07/17 03:21:35;;;;;;;;;;;;;;;17.69;100.00;99970.38;5012046;28;886;-70
2023/07/17 03:24:02;;;;;;;;;;;;;;;17.73;100.00;99973.84;5012121;28;903;-70
2023/07/17 03:26:29;;;;;;;;;;;;;;;17.82;100.00;99976.00;5012143;28;862;-70
2023/07/17 03:28:56;;;;;;;;;;;;;;;17.94;100.00;99974.41;5011850;28;864;-70
2023/07/17 03:31:23;;;;;;;;;;;;;;;18.04;100.00;99978.88;5013865;28;815;-70
2023/07/17 03:33:50;;;;;;;;;;;;;;;18.15;100.00;99979.31;5015600;28;815;-71
2023/07/17 03:36:17;;;;;;;;;;;;;;;18.31;100.00;99974.81;5015410;28;856;-71
2023/07/17 03:38:44;;;;;;;;;;;;;;;18.53;100.00;99974.84;5015617;28;854;-71
2023/07/17 03:41:11;;;;;;;;;;;;;;;18.78;100.00;99976.81;5015435;28;882;-72
2023/07/17 03:43:37;;;;;;;;;;;;;;;19.02;100.00;99979.16;5015617;28;823;-71
2023/07/17 03:46:05;;;;;;;;;;;;;;;19.32;100.00;99981.19;5015355;28;1890;-70
2023/07/17 03:48:32;;;;;;;;;;;;;;;19.69;100.00;99989.00;5015048;28;885;-71
2023/07/17 03:50:59;;;;;;;;;;;;;;;19.92;100.00;99990.53;5015137;28;1030;-70
2023/07/17 03:53:26;;;;;;;;;;;;;;;20.08;100.00;99993.06;5014795;28;1413;-71
2023/07/17 03:55:53;;;;;;;;;;;;;;;20.09;100.00;99986.19;5015414;28;795;-72
2023/07/17 03:58:20;;;;;;;;;;;;;;;20.06;100.00;99987.16;5015103;28;834;-71
2023/07/17 04:00:47;;;;;;;;;;;;;;;20.02;100.00;99989.31;5015137;28;877;-70
2023/07/17 04:03:14;;;;;;;;;;;;;;;19.95;100.00;99986.78;4997316;28;1288;-71
2023/07/17 04:05:40;;;;;;;;;;;;;;;19.90;100.00;99985.38;5014934;28;1981;-70
2023/07/17 04:08:07;;;;;;;;;;;;;;;19.83;100.00;99996.88;5015101;28;842;-70
2023/07/17 04:10:34;;;;;;;;;;;;;;;19.83;100.00;99990.50;5014847;28;966;-70
2023/07/17 04:12:59;;;;;;;;;;;;;;;19.86;100.00;99997.97;5014834;28;870;-70
2023/07/17 04:15:29;;;;;;;;;;;;;;;19.88;100.00;99987.84;5014879;28;878;-70
2023/07/17 04:17:55;;;;;;;;;;;;;;;19.97;100.00;99985.09;5014759;28;858;-71
2023/07/17 04:20:22;;;;;;;;;;;;;;;20.15;100.00;99987.16;5014828;28;858;-70
2023/07/17 04:22:49;;;;;;;;;;;;;;;20.34;100.00;99990.00;5014176;28;1176;-71
2023/07/17 04:25:16;;;;;;;;;;;;;;;20.51;100.00;99984.88;5014522;28;1894;-71
2023/07/17 04:27:44;;;;;;;;;;;;;;;20.63;100.00;99986.78;5014532;28;941;-70
2023/07/17 04:30:10;;;;;;;;;;;;;;;20.79;100.00;99985.69;5014542;28;806;-70
2023/07/17 04:32:37;;;;;;;;;;;;;;;20.93;100.00;99985.06;5014540;28;877;-71
2023/07/17 04:35:04;;;;;;;;;;;;;;;21.03;100.00;99985.03;5014195;28;878;-70
2023/07/17 04:37:32;;;;;;;;;;;;;;;21.15;100.00;99990.50;4996493;28;1312;-71
2023/07/17 04:39:58;;;;;;;;;;;;;;;21.30;100.00;99984.22;5014430;28;827;-71
2023/07/17 04:42:25;;;;;;;;;;;;;;;21.48;100.00;99978.56;5013495;28;811;-71
2023/07/17 04:44:52;;;;;;;;;;;;;;;21.63;100.00;99984.28;5014145;28;1956;-71
2023/07/17 04:47:19;;;;;;;;;;;;;;;21.76;100.00;99998.94;4996391;28;1280;-71
2023/07/17 04:49:46;;;;;;;;;;;;;;;21.91;100.00;99992.59;5013909;28;886;-70
2023/07/17 04:52:12;;;;;;;;;;;;;;;22.09;100.00;99980.50;5013895;28;819;-71
2023/07/17 04:54:39;;;;;;;;;;;;;;;22.18;100.00;99986.06;5013633;28;1259;-71
2023/07/17 04:57:06;;;;;;;;;;;;;;;22.34;100.00;99987.69;5013659;28;882;-71
2023/07/17 04:59:33;;;;;;;;;;;;;;;22.54;100.00;99987.09;5013800;28;886;-71
2023/07/17 05:02:00;;;;;;;;;;;;;;;22.73;100.00;99982.88;5013987;28;877;-71
2023/07/17 05:04:27;;;;;;;;;;;;;;;22.94;100.00;99983.00;5013590;28;1973;-71
2023/07/17 05:06:54;;;;;;;;;;;;;;;23.15;100.00;99990.34;5013544;28;879;-71
2023/07/17 05:09:21;;;;;;;;;;;;;;;23.37;100.00;99992.75;5013542;28;878;-72
2023/07/17 05:11:49;;;;;;;;;;;;;;;23.58;100.00;99985.16;5013559;28;851;-72
2023/07/17 05:14:17;;;;;;;;;;;;;;;23.73;100.00;99992.84;4995873;28;1734;-72
2023/07/17 05:16:44;;;;;;;;;;;;;;;23.86;100.00;99996.13;5013446;28;826;-72
2023/07/17 05:19:10;;;;;;;;;;;;;;;23.98;100.00;99997.06;5013655;28;866;-72
2023/07/17 05:21:37;;;;;;;;;;;;;;;24.27;100.00;100001.84;5013405;28;918;-72
2023/07/17 05:24:04;;;;;;;;;;;;;;;24.79;100.00;99995.56;5013355;28;866;-73
2023/07/17 05:26:31;;;;;;;;;;;;;;;24.99;98.94;99997.59;5013185;28;2016;-73
2023/07/17 05:28:57;;;;;;;;;;;;;;;25.01;99.11;100009.19;5013135;28;814;-73
2023/07/17 05:31:24;;;;;;;;;;;;;;;25.09;98.51;100007.44;5013169;28;788;-73
2023/07/17 05:33:52;;;;;;;;;;;;;;;25.21;97.10;100020.47;5013183;28;843;-73
2023/07/17 05:36:18;;;;;;;;;;;;;;;25.34;95.34;100022.13;5013118;28;835;-74
2023/07/17 05:38:44;;;;;;;;;;;;;;;25.51;94.22;100027.94;5013330;28;843;-74
2023/07/17 05:41:11;;;;;;;;;;;;;;;25.91;93.19;100017.75;5012995;28;855;-73
2023/07/17 05:43:38;;;;;;;;;;;;;;;26.22;88.27;100020.50;5013008;28;851;-74
2023/07/17 05:46:04;;;;;;;;;;;;;;;26.53;85.16;100027.34;5012939;28;1953;-74
2023/07/17 05:48:31;;;;;;;;;;;;;;;26.76;79.77;100018.97;5013336;28;870;-75
2023/07/17 05:50:58;;;;;;;;;;;;;;;27.07;78.69;100021.63;5012854;28;869;-75
2023/07/17 05:53:25;;;;;;;;;;;;;;;27.19;78.18;100019.59;5012874;28;1229;-74
2023/07/17 05:55:52;;;;;;;;;;;;;;;27.33;76.79;100023.50;5011944;28;871;-73
2023/07/17 05:58:19;;;;;;;;;;;;;;;27.58;74.73;100024.53;5012818;28;953;-75
2023/07/17 06:00:45;;;;;;;;;;;;;;;27.90;68.43;100015.78;5012938;28;895;-75
2023/07/17 06:03:12;;;;;;;;;;;;;;;28.23;65.36;100017.00;5012599;28;913;-73
2023/07/17 06:05:39;;;;;;;;;;;;;;;28.47;62.78;100014.34;5012804;28;1922;-74
2023/07/17 06:08:06;;;;;;;;;;;;;;;28.73;60.92;100021.00;5012910;28;850;-75
2023/07/17 06:10:32;;;;;;;;;;;;;;;29.02;56.63;100020.31;4995163;28;1170;-73
2023/07/17 06:12:59;;;;;;;;;;;;;;;29.65;52.52;100027.13;5012963;28;883;-74
2023/07/17 06:15:27;;;;;;;;;;;;;;;30.24;48.28;100021.16;4995014;28;1289;-73
2023/07/17 06:17:53;;;;;;;;;;;;;;;30.87;46.03;100025.59;5012638;28;1293;-74
2023/07/17 06:20:22;;;;;;;;;;;;;;;31.17;42.65;100016.09;5012410;28;849;-74
2023/07/17 06:22:49;;;;;;;;;;;;;;;31.53;41.05;100013.72;5012551;28;846;-73
2023/07/17 06:25:16;;;;;;;;;;;;;;;31.70;40.32;100019.16;5012260;28;1949;-72
2023/07/17 06:27:42;;;;;;;;;;;;;;;31.77;39.94;100014.13;5012466;28;858;-73
2023/07/17 06:30:10;;;;;;;;;;;;;;;31.71;39.27;100017.84;5012480;28;846;-74
2023/07/17 06:32:37;;;;;;;;;;;;;;;31.61;38.92;100013.88;5012473;28;819;-73
2023/07/17 06:35:15;;;;;;;;;;;;;;;31.63;38.20;100008.38;5012365;28;917;-69
2023/07/17 06:37:42;;;;;;;;;;;;;;;31.75;38.49;100014.69;5012166;28;858;-74
2023/07/17 06:40:10;;;;;;;;;;;;;;;32.00;37.43;100012.41;5012250;28;869;-74
2023/07/17 06:42:37;;;;;;;;;;;;;;;32.46;36.12;100006.59;5012083;28;863;-72
2023/07/17 06:45:04;;;;;;;;;;;;;;;33.13;34.79;100002.28;5012088;28;1968;-73
2023/07/17 06:47:30;;;;;;;;;;;;;;;33.92;32.92;100005.31;4994482;28;1364;-71
2023/07/17 06:49:58;;;;;;;;;;;;;;;34.76;31.23;100002.19;5012085;28;854;-72
2023/07/17 06:52:24;;;;;;;;;;;;;;;35.69;29.01;100006.03;5012354;28;906;-73
2023/07/17 06:54:51;;;;;;;;;;;;;;;36.11;27.97;99997.75;5011800;28;1546;-73
2023/07/17 06:57:18;;;;;;;;;;;;;;;36.79;26.83;100009.66;5012043;28;926;-72
2023/07/17 06:59:44;;;;;;;;;;;;;;;37.43;25.61;100006.56;5012119;28;882;-74
2023/07/17 07:02:11;;;;;;;;;;;;;;;37.46;24.92;99994.66;5011992;28;818;-73
2023/07/17 07:04:37;;;;;;;;;;;;;;;37.91;23.98;100004.28;5011799;28;1911;-73
2023/07/17 07:07:04;;;;;;;;;;;;;;;37.76;22.48;99990.75;5014694;28;819;-74
2023/07/17 07:09:31;;;;;;;;;;;;;;;37.64;22.98;99995.50;5016154;28;819;-74
2023/07/17 07:11:57;;;;;;;;;;;;;;;37.73;23.07;99994.09;4998140;28;1337;-73
2023/07/17 07:14:24;;;;;;;;;;;;;;;38.29;22.80;99996.63;5015695;28;807;-72
2023/07/17 07:16:51;;;;;;;;;;;;;;;38.41;22.42;99988.97;5015686;28;819;-72
2023/07/17 07:19:17;;;;;;;;;;;;;;;38.31;22.39;99993.91;5015666;28;814;-73
2023/07/17 07:21:44;;;;;;;;;;;;;;;38.80;21.79;99986.38;5015536;28;835;-71
2023/07/17 07:24:11;;;;;;;;;;;;;;;38.89;21.66;99990.69;5015526;28;841;-73
2023/07/17 07:26:38;;;;;;;;;;;;;;;39.21;21.86;99990.41;5015465;28;815;-74
2023/07/17 07:29:05;;;;;;;;;;;;;;;39.74;21.16;99987.28;5015651;28;859;-73
2023/07/17 07:31:31;;;;;;;;;;;;;;;40.24;20.83;99986.75;4997737;28;1185;-71
2023/07/17 07:33:58;;;;;;;;;;;;;;;40.33;21.06;99980.22;5015360;28;870;-71
2023/07/17 07:36:28;;;;;;;;;;;;;;;40.14;20.74;99988.91;5015181;28;843;-69
2023/07/17 07:38:55;;;;;;;;;;;;;;;39.90;21.34;99982.75;5015269;28;902;-70
2023/07/17 07:41:21;;;;;;;;;;;;;;;40.11;21.16;99978.53;5015228;28;791;-69
2023/07/17 07:43:48;;;;;;;;;;;;;;;40.47;20.96;99983.41;5015243;28;823;-69
2023/07/17 07:46:15;;;;;;;;;;;;;;;40.15;20.65;99979.56;5015051;28;1886;-69
2023/07/17 07:48:42;;;;;;;;;;;;;;;40.48;20.58;99978.38;5014989;28;862;-69
2023/07/17 07:51:08;;;;;;;;;;;;;;;40.64;20.57;99973.78;5014943;28;862;-68
2023/07/17 07:53:35;;;;;;;;;;;;;;;40.68;20.90;99976.97;5014954;28;1333;-69
2023/07/17 07:56:02;;;;;;;;;;;;;;;40.65;20.54;99975.31;5015019;28;795;-70
2023/07/17 07:58:28;;;;;;;;;;;;;;;40.97;20.70;99973.25;5014883;28;827;-68
2023/07/17 08:00:55;;;;;;;;;;;;;;;41.09;20.53;99974.13;5014878;28;803;-68
2023/07/17 08:03:22;;;;;;;;;;;;;;;40.54;21.02;99973.03;5014617;28;968;-68
2023/07/17 08:05:49;;;;;;;;;;;;;;;39.98;21.34;99968.16;5014721;28;1969;-68
2023/07/17 08:08:16;;;;;;;;;;;;;;;39.66;21.62;99970.06;5014610;28;878;-69
2023/07/17 08:10:44;;;;;;;;;;;;;;;39.67;21.55;99974.47;5014714;28;869;-65
2023/07/17 08:13:11;;;;;;;;;;;;;;;39.70;21.48;99964.59;5014348;28;900;-69
2023/07/17 08:15:37;;;;;;;;;;;;;;;39.94;21.62;99962.81;5014583;28;799;-68
2023/07/17 08:18:05;;;;;;;;;;;;;;;40.59;21.04;99963.28;5013508;28;827;-69
2023/07/17 08:20:31;;;;;;;;;;;;;;;40.17;21.38;99962.38;5014522;28;859;-69
2023/07/17 08:22:56;;;;;;;;;;;;;;;39.89;21.78;99963.88;5014318;28;827;-69
2023/07/17 08:25:23;;;;;;;;;;;;;;;40.15;21.28;99959.31;5014237;28;1973;-68
2023/07/17 08:27:51;;;;;;;;;;;;;;;40.54;21.22;99953.53;5014351;28;855;-69
2023/07/17 08:30:17;;;;;;;;;;;;;;;40.57;20.70;99958.09;4996824;28;1318;-68
2023/07/17 08:32:44;;;;;;;;;;;;;;;40.61;20.80;99946.06;5014186;28;855;-69
2023/07/17 08:35:11;;;;;;;;;;;;;;;40.44;20.94;99949.91;5014217;28;846;-69
2023/07/17 08:37:38;;;;;;;;;;;;;;;40.47;20.99;99948.66;5014192;28;795;-69
2023/07/17 08:40:05;;;;;;;;;;;;;;;40.34;21.12;99944.09;5014024;28;811;-69
2023/07/17 08:42:33;;;;;;;;;;;;;;;40.19;21.33;99948.06;5014006;28;866;-68
2023/07/17 08:45:01;;;;;;;;;;;;;;;39.92;21.99;99939.50;5013853;28;1890;-69
2023/07/17 08:47:28;;;;;;;;;;;;;;;39.85;22.10;99949.09;5014326;28;1015;-68
2023/07/17 08:49:55;;;;;;;;;;;;;;;40.49;21.92;99943.03;5013861;28;803;-69
2023/07/17 08:52:22;;;;;;;;;;;;;;;40.50;21.66;99941.66;5013863;28;848;-68
2023/07/17 08:54:49;;;;;;;;;;;;;;;40.40;21.73;99929.34;4995948;28;1290;-67
2023/07/17 08:57:17;;;;;;;;;;;;;;;40.28;21.74;99929.19;5013734;28;855;-68
2023/07/17 08:59:43;;;;;;;;;;;;;;;40.08;21.70;99936.34;5013554;28;895;-68
2023/07/17 09:02:10;;;;;;;;;;;;;;;39.88;22.19;99935.56;5013706;28;847;-69
2023/07/17 09:04:37;;;;;;;;;;;;;;;39.85;22.08;99931.00;5013545;28;1973;-68
2023/07/17 09:07:04;;;;;;;;;;;;;;;39.57;22.82;99939.00;5013500;28;822;-69
2023/07/17 09:09:30;;;;;;;;;;;;;;;39.46;22.10;99943.22;5013679;28;886;-69
2023/07/17 09:12:16;;;;;;;;;;;;;;;39.16;22.76;99930.78;5013569;28;822;-68
2023/07/17 09:14:42;;;;;;;;;;;;;;;39.09;22.61;99925.91;5013517;28;884;-69
2023/07/17 09:48:13;;;;;;;;;;;;;;;37.51;23.80;99926.59;5276272;23;2325;-67
2023/07/17 09:50:41;;;;;;;;;;;;;;;37.44;24.57;99919.53;4991944;28;882;-66
2023/07/17 09:53:09;;;;;;;;;;;;;;;37.39;24.43;99912.66;4993321;28;877;-63
2023/07/17 09:55:37;;;;;;;;;;;;;;;37.36;24.38;99910.19;4993110;28;902;-65
2023/07/17 09:58:04;;;;;;;;;;;;;;;37.55;24.71;99912.50;4992992;28;881;-67
2023/07/17 10:00:32;;;;;;;;;;;;;;;37.44;24.88;99904.38;4993109;28;902;-66
2023/07/17 10:03:07;;;;;;;;;;;;;;;37.46;24.96;99913.19;4992873;28;895;-66
2023/07/17 10:05:33;;;;;;;;;;;;;;;37.45;24.98;99900.91;4992896;28;1973;-65
2023/07/17 10:08:03;;;;;;;;;;;;;;;37.33;24.83;99900.59;4992815;28;838;-66
2023/07/17 10:10:30;;;;;;;;;;;;;;;37.39;25.04;99898.25;4993313;28;791;-70
2023/07/17 10:12:57;;;;;;;;;;;;;;;37.34;24.25;99886.97;4992981;28;807;-68
2023/07/17 10:15:25;;;;;;;;;;;;;;;37.46;24.61;99893.78;4992897;28;1007;-69
2023/07/17 10:17:58;;;;;;;;;;;;;;;37.39;24.86;99885.97;4992843;28;815;-70
2023/07/17 10:20:26;;;;;;;;;;;;;;;37.50;24.89;99891.22;4992711;28;897;-70
2023/07/17 10:22:53;;;;;;;;;;;;;;;37.68;24.55;99885.50;4992754;28;973;-69
2023/07/17 10:25:20;;;;;;;;;;;;;;;37.62;24.67;99890.75;4992761;28;1890;-71
2023/07/17 10:27:47;;;;;;;;;;;;;;;37.55;24.74;99887.31;4992870;28;858;-69
2023/07/17 10:30:23;;;;;;;;;;;;;;;37.53;24.23;99892.16;4992688;28;830;-68
2023/07/17 10:33:05;;;;;;;;;;;;;;;37.79;24.47;99880.00;4992661;28;811;-69
2023/07/17 10:35:56;;;;;;;;;;;;;;;37.93;23.97;99886.19;4992794;28;858;-70
2023/07/17 10:38:24;;;;;;;;;;;;;;;38.20;24.11;99880.50;4992638;28;857;-70
2023/07/17 10:41:11;;;;;;;;;;;;;;;38.03;25.03;99882.63;4992203;28;914;-72
2023/07/17 10:43:48;;;;;;;;;;;;;;;37.74;25.00;99880.25;4974514;28;1188;-71
2023/07/17 10:46:15;;;;;;;;;;;;;;;37.51;25.10;99881.25;4986088;28;1975;-68
2023/07/17 10:48:42;;;;;;;;;;;;;;;37.52;25.13;99879.88;5015564;28;1232;-69
2023/07/17 10:51:09;;;;;;;;;;;;;;;37.28;24.79;99877.78;5032262;28;810;-71
2023/07/17 10:53:36;;;;;;;;;;;;;;;37.06;25.46;99871.59;5031995;28;807;-72
2023/07/17 10:56:03;;;;;;;;;;;;;;;37.52;25.74;99870.47;5031980;28;908;-72
2023/07/17 10:58:30;;;;;;;;;;;;;;;37.74;25.54;99874.50;5032005;28;909;-73
2023/07/17 11:00:57;;;;;;;;;;;;;;;38.08;24.76;99872.97;5031855;28;944;-71
2023/07/17 11:03:26;;;;;;;;;;;;;;;37.90;24.62;99870.09;5031940;28;858;-71
2023/07/17 11:05:55;;;;;;;;;;;;;;;37.72;25.39;99871.44;5032054;28;1977;-74
2023/07/17 11:08:24;;;;;;;;;;;;;;;37.68;25.36;99865.31;5032049;28;889;-72
2023/07/17 11:10:51;;;;;;;;;;;;;;;37.52;25.56;99868.34;5031921;28;826;-69
2023/07/17 11:13:18;;;;;;;;;;;;;;;37.49;26.07;99866.66;5031808;28;791;-70
2023/07/17 11:15:45;;;;;;;;;;;;;;;37.45;27.07;99863.44;5031752;28;803;-72
2023/07/17 11:18:12;;;;;;;;;;;;;;;37.63;26.83;99875.00;5014191;28;870;-70
2023/07/17 11:20:39;;;;;;;;;;;;;;;37.55;26.64;99864.25;5031914;28;831;-68
2023/07/17 11:23:09;;;;;;;;;;;;;;;37.61;27.38;99863.28;5031729;28;874;-68
2023/07/17 11:25:37;;;;;;;;;;;;;;;37.47;27.44;99865.69;5031769;28;1926;-71
2023/07/17 11:28:04;;;;;;;;;;;;;;;37.42;27.94;99864.59;5031719;28;818;-72
2023/07/17 11:30:35;;;;;;;;;;;;;;;37.55;27.79;99872.91;5031795;28;925;-72
2023/07/17 11:33:02;;;;;;;;;;;;;;;37.72;27.79;99868.56;5031538;28;874;-70
2023/07/17 11:35:46;;;;;;;;;;;;;;;38.08;26.92;99870.09;5031674;28;886;-73
2023/07/17 11:38:15;;;;;;;;;;;;;;;38.57;26.78;99874.84;5031619;28;790;-71
2023/07/17 11:40:52;;;;;;;;;;;;;;;38.59;25.87;99869.22;5031561;28;790;-69
2023/07/17 11:43:45;;;;;;;;;;;;;;;38.49;26.23;99865.50;5031469;28;1067;-68
2023/07/17 11:46:12;;;;;;;;;;;;;;;38.60;26.21;99870.75;5027927;28;1886;-69
2023/07/17 11:48:43;;;;;;;;;;;;;;;38.74;25.48;99865.34;5030908;28;1314;-69
2023/07/17 11:51:10;;;;;;;;;;;;;;;38.65;25.55;99857.41;5031383;28;934;-69
2023/07/17 11:53:36;;;;;;;;;;;;;;;38.75;25.56;99860.31;5033228;28;877;-69
2023/07/17 11:56:03;;;;;;;;;;;;;;;38.92;25.21;99862.38;5034936;28;811;-70
2023/07/17 11:58:34;;;;;;;;;;;;;;;38.94;25.67;99863.31;5034850;28;853;-74
2023/07/17 12:01:01;;;;;;;;;;;;;;;39.42;24.95;99861.97;5034840;28;857;-72
2023/07/17 12:03:29;;;;;;;;;;;;;;;39.12;25.12;99863.25;5034889;28;858;-71
2023/07/17 12:05:55;;;;;;;;;;;;;;;38.79;26.01;99855.66;5034827;28;2058;-69
2023/07/17 12:08:22;;;;;;;;;;;;;;;39.01;25.87;99850.13;5034936;28;862;-69
2023/07/17 12:10:50;;;;;;;;;;;;;;;39.13;25.58;99861.88;5034756;28;802;-72
2023/07/17 12:13:17;;;;;;;;;;;;;;;39.54;25.10;99859.22;5034602;28;930;-68
2023/07/17 12:15:44;;;;;;;;;;;;;;;39.46;25.40;99864.41;5034414;28;846;-68
2023/07/17 12:18:11;;;;;;;;;;;;;;;39.50;25.29;99851.03;5034393;28;900;-68
2023/07/17 12:20:37;;;;;;;;;;;;;;;39.34;25.39;99849.75;5034626;28;826;-70
2023/07/17 12:23:05;;;;;;;;;;;;;;;39.63;24.98;99846.94;5034719;28;826;-71
2023/07/17 12:25:32;;;;;;;;;;;;;;;39.62;25.04;99845.38;5034198;28;1886;-71
2023/07/17 12:28:00;;;;;;;;;;;;;;;39.92;24.88;99851.97;5034341;28;854;-70
2023/07/17 12:30:26;;;;;;;;;;;;;;;39.99;24.89;99845.28;5034351;28;859;-69
2023/07/17 12:32:53;;;;;;;;;;;;;;;40.08;24.69;99850.28;5034509;28;790;-69
2023/07/17 12:35:20;;;;;;;;;;;;;;;39.71;24.74;99849.66;5034281;28;838;-69
2023/07/17 12:37:46;;;;;;;;;;;;;;;39.33;25.13;99851.88;5034172;28;951;-70
2023/07/17 12:40:13;;;;;;;;;;;;;;;39.52;24.89;99845.41;5016272;28;1362;-68
2023/07/17 12:42:40;;;;;;;;;;;;;;;39.40;25.00;99851.00;5034120;28;857;-72
2023/07/17 12:45:07;;;;;;;;;;;;;;;39.68;25.02;99859.56;5033953;28;1958;-71
2023/07/17 12:47:34;;;;;;;;;;;;;;;39.44;25.42;99844.78;5008954;28;1231;-69
2023/07/17 12:50:01;;;;;;;;;;;;;;;39.53;25.23;99852.69;4994795;28;788;-69
2023/07/17 12:52:28;;;;;;;;;;;;;;;39.65;24.76;99847.06;4994588;28;799;-68
2023/07/17 12:54:55;;;;;;;;;;;;;;;39.84;24.57;99852.13;4993196;28;1547;-69
2023/07/17 12:57:22;;;;;;;;;;;;;;;39.52;24.84;99850.41;4994438;28;834;-69
2023/07/17 12:59:49;;;;;;;;;;;;;;;39.53;25.58;99849.78;4994358;28;886;-69
2023/07/17 13:02:16;;;;;;;;;;;;;;;39.86;24.75;99855.19;4994417;28;811;-70
2023/07/17 13:04:43;;;;;;;;;;;;;;;40.14;24.77;99850.72;4993765;28;1983;-69
2023/07/17 13:07:10;;;;;;;;;;;;;;;39.90;24.79;99846.03;4994056;28;860;-69
2023/07/17 13:09:37;;;;;;;;;;;;;;;40.23;24.61;99846.28;4994175;28;882;-70
2023/07/17 13:12:04;;;;;;;;;;;;;;;40.18;24.08;99844.47;4994223;28;873;-66
2023/07/17 13:14:31;;;;;;;;;;;;;;;40.16;23.78;99847.19;4993815;28;866;-68
2023/07/17 13:16:58;;;;;;;;;;;;;;;39.87;24.29;99855.94;4994224;28;854;-67
2023/07/17 13:19:25;;;;;;;;;;;;;;;39.52;24.81;99844.59;4993809;28;878;-65
2023/07/17 13:21:51;;;;;;;;;;;;;;;39.05;25.49;99843.88;4993768;28;964;-66
2023/07/17 13:24:20;;;;;;;;;;;;;;;38.99;25.32;99847.84;4993675;28;838;-65
2023/07/17 13:26:47;;;;;;;;;;;;;;;38.93;25.34;99846.56;4993635;28;1943;-65
2023/07/17 13:29:13;;;;;;;;;;;;;;;39.09;25.16;99847.88;4993558;28;819;-65
2023/07/17 13:31:40;;;;;;;;;;;;;;;39.46;24.75;99844.94;4993953;28;810;-65